Table Rock, Pennsylvania
Current Conditions -  °F | °C
As of 3:53 AM on Thursday 23 Oct 2014 (Local Time) from KRYT Reporting Station
Overcast Overcast  
Wind Chill: 47°   Ceiling: 2400
Heat Index: 49°   Visibility: 10mi
Dew Point: 40°   Wind: 6mph
Humidity: 71%   Direction: NA
Pressure: 29.89"   Gusts: NA
Location:  39.942°N, 77.3061°W
Report Text: KRYT 230753Z AUTO VRB05KT 10SM BKN024 OVC036 09/04 A2989 RMK AO2 SLP123 T00940044 $
Loading
Personal Weather Stations






























Interactive Weather Map
Tropical Storm Tracking
New forecast layout! Learn more

10-Day Weather Forecast

Advertisements
Track Severe Weather on mobile